sensor_id;sensor_type;location;lat;lon;timestamp;temperature;humidity
30174;DHT22;16985;50.814;8.530;2023-02-21T00:00:59;7.70;99.90
30174;DHT22;16985;50.814;8.530;2023-02-21T00:03:44;7.70;99.90
30174;DHT22;16985;50.814;8.530;2023-02-21T00:12:00;7.90;99.90
30174;DHT22;16985;50.814;8.530;2023-02-21T00:14:47;7.80;99.90
30174;DHT22;16985;50.814;8.530;2023-02-21T00:17:32;7.70;99.90
30174;DHT22;16985;50.814;8.530;2023-02-21T00:20:16;7.70;99.90
30174;DHT22;16985;50.814;8.530;2023-02-21T00:23:01;7.70;99.90
30174;DHT22;16985;50.814;8.530;2023-02-21T00:25:45;8.60;99.90
30174;DHT22;16985;50.814;8.530;2023-02-21T00:28:31;7.70;99.90
30174;DHT22;16985;50.814;8.530;2023-02-21T00:31:17;7.70;99.90
30174;DHT22;16985;50.814;8.530;2023-02-21T00:36:47;7.80;99.90
30174;DHT22;16985;50.814;8.530;2023-02-21T00:39:31;7.80;99.90
30174;DHT22;16985;50.814;8.530;2023-02-21T00:42:16;7.70;99.90
30174;DHT22;16985;50.814;8.530;2023-02-21T00:45:00;7.70;99.90
30174;DHT22;16985;50.814;8.530;2023-02-21T00:47:45;7.70;99.90
30174;DHT22;16985;50.814;8.530;2023-02-21T00:50:29;7.70;99.90
30174;DHT22;16985;50.814;8.530;2023-02-21T00:53:13;7.70;99.90
30174;DHT22;16985;50.814;8.530;2023-02-21T00:55:58;7.70;99.90
30174;DHT22;16985;50.814;8.530;2023-02-21T00:58:42;7.60;99.90
30174;DHT22;16985;50.814;8.530;2023-02-21T01:01:26;7.60;99.90
30174;DHT22;16985;50.814;8.530;2023-02-21T01:06:55;7.70;99.90
30174;DHT22;16985;50.814;8.530;2023-02-21T01:20:40;7.70;99.90
30174;DHT22;16985;50.814;8.530;2023-02-21T01:26:10;7.80;99.90
30174;DHT22;16985;50.814;8.530;2023-02-21T01:28:56;7.80;99.90
30174;DHT22;16985;50.814;8.530;2023-02-21T01:34:26;7.70;99.90
30174;DHT22;16985;50.814;8.530;2023-02-21T01:39:55;7.60;99.90
30174;DHT22;16985;50.814;8.530;2023-02-21T01:42:41;7.60;99.90
30174;DHT22;16985;50.814;8.530;2023-02-21T01:48:18;7.50;99.90
30174;DHT22;16985;50.814;8.530;2023-02-21T01:51:04;7.50;99.90
30174;DHT22;16985;50.814;8.530;2023-02-21T01:53:50;7.50;99.90
30174;DHT22;16985;50.814;8.530;2023-02-21T01:56:36;7.50;99.90
30174;DHT22;16985;50.814;8.530;2023-02-21T01:59:22;7.40;99.90
30174;DHT22;16985;50.814;8.530;2023-02-21T02:05:04;7.50;99.90
30174;DHT22;16985;50.814;8.530;2023-02-21T02:10:39;7.50;99.90
30174;DHT22;16985;50.814;8.530;2023-02-21T02:13:46;7.50;99.90
30174;DHT22;16985;50.814;8.530;2023-02-21T02:16:26;8.10;99.90
30174;DHT22;16985;50.814;8.530;2023-02-21T02:31:37;7.30;99.90
30174;DHT22;16985;50.814;8.530;2023-02-21T02:41:02;7.50;99.90
30174;DHT22;16985;50.814;8.530;2023-02-21T02:43:40;7.40;99.90
30174;DHT22;16985;50.814;8.530;2023-02-21T02:46:29;7.40;99.90
30174;DHT22;16985;50.814;8.530;2023-02-21T03:17:48;7.60;99.90
30174;DHT22;16985;50.814;8.530;2023-02-21T03:32:52;7.60;99.90
30174;DHT22;16985;50.814;8.530;2023-02-21T03:42:58;7.40;99.90
30174;DHT22;16985;50.814;8.530;2023-02-21T03:45:28;7.60;99.90
30174;DHT22;16985;50.814;8.530;2023-02-21T03:48:03;7.50;99.90
30174;DHT22;16985;50.814;8.530;2023-02-21T03:50:31;7.40;99.90
30174;DHT22;16985;50.814;8.530;2023-02-21T03:52:58;7.40;99.90
30174;DHT22;16985;50.814;8.530;2023-02-21T03:55:23;7.40;99.90
30174;DHT22;16985;50.814;8.530;2023-02-21T03:57:50;7.30;99.90
30174;DHT22;16985;50.814;8.530;2023-02-21T04:00:16;7.40;99.90
30174;DHT22;16985;50.814;8.530;2023-02-21T04:02:43;7.40;99.90
30174;DHT22;16985;50.814;8.530;2023-02-21T04:05:17;7.30;99.90
30174;DHT22;16985;50.814;8.530;2023-02-21T04:07:43;7.40;99.90
30174;DHT22;16985;50.814;8.530;2023-02-21T04:10:09;7.40;99.90
30174;DHT22;16985;50.814;8.530;2023-02-21T04:12:40;7.40;99.90
30174;DHT22;16985;50.814;8.530;2023-02-21T04:15:07;7.40;99.90
30174;DHT22;16985;50.814;8.530;2023-02-21T04:17:33;7.30;99.90
30174;DHT22;16985;50.814;8.530;2023-02-21T04:20:00;7.30;99.90
30174;DHT22;16985;50.814;8.530;2023-02-21T04:22:26;7.40;99.90
30174;DHT22;16985;50.814;8.530;2023-02-21T04:24:52;7.40;99.90
30174;DHT22;16985;50.814;8.530;2023-02-21T04:27:19;7.40;99.90
30174;DHT22;16985;50.814;8.530;2023-02-21T04:29:50;7.40;99.90
30174;DHT22;16985;50.814;8.530;2023-02-21T04:32:16;7.40;99.90
30174;DHT22;16985;50.814;8.530;2023-02-21T04:34:42;7.40;99.90
30174;DHT22;16985;50.814;8.530;2023-02-21T04:37:08;7.40;99.90
30174;DHT22;16985;50.814;8.530;2023-02-21T04:39:34;4.80;99.90
30174;DHT22;16985;50.814;8.530;2023-02-21T04:42:00;7.40;99.90
30174;DHT22;16985;50.814;8.530;2023-02-21T04:44:27;7.40;99.90
30174;DHT22;16985;50.814;8.530;2023-02-21T04:46:53;7.40;99.90
30174;DHT22;16985;50.814;8.530;2023-02-21T04:49:19;7.40;99.90
30174;DHT22;16985;50.814;8.530;2023-02-21T04:51:45;7.40;99.90
30174;DHT22;16985;50.814;8.530;2023-02-21T04:54:11;7.40;99.90
30174;DHT22;16985;50.814;8.530;2023-02-21T04:56:37;7.40;99.90
30174;DHT22;16985;50.814;8.530;2023-02-21T04:59:04;7.40;99.90
30174;DHT22;16985;50.814;8.530;2023-02-21T05:01:30;7.40;99.90
30174;DHT22;16985;50.814;8.530;2023-02-21T05:03:58;7.50;99.90
30174;DHT22;16985;50.814;8.530;2023-02-21T05:06:26;7.40;99.90
30174;DHT22;16985;50.814;8.530;2023-02-21T05:08:52;7.40;99.90
30174;DHT22;16985;50.814;8.530;2023-02-21T05:11:19;7.40;99.90
30174;DHT22;16985;50.814;8.530;2023-02-21T05:21:09;7.50;99.90
30174;DHT22;16985;50.814;8.530;2023-02-21T05:23:35;7.60;99.90
30174;DHT22;16985;50.814;8.530;2023-02-21T05:26:10;7.50;99.90
30174;DHT22;16985;50.814;8.530;2023-02-21T05:31:05;7.50;99.90
30174;DHT22;16985;50.814;8.530;2023-02-21T05:33:31;7.50;99.90
30174;DHT22;16985;50.814;8.530;2023-02-21T05:35:58;7.40;99.90
30174;DHT22;16985;50.814;8.530;2023-02-21T05:38:24;7.40;99.90
30174;DHT22;16985;50.814;8.530;2023-02-21T05:40:50;7.40;99.90
30174;DHT22;16985;50.814;8.530;2023-02-21T05:43:16;7.40;99.90
30174;DHT22;16985;50.814;8.530;2023-02-21T05:45:42;7.40;99.90
30174;DHT22;16985;50.814;8.530;2023-02-21T05:48:08;7.40;99.90
30174;DHT22;16985;50.814;8.530;2023-02-21T05:50:34;6.90;99.90
30174;DHT22;16985;50.814;8.530;2023-02-21T05:53:00;7.40;99.90
30174;DHT22;16985;50.814;8.530;2023-02-21T05:57:52;7.50;99.90
30174;DHT22;16985;50.814;8.530;2023-02-21T06:00:25;7.50;99.90
30174;DHT22;16985;50.814;8.530;2023-02-21T06:02:53;7.50;99.90
30174;DHT22;16985;50.814;8.530;2023-02-21T06:05:19;7.40;99.90
30174;DHT22;16985;50.814;8.530;2023-02-21T06:07:47;7.40;99.90
30174;DHT22;16985;50.814;8.530;2023-02-21T06:10:14;7.40;99.90
30174;DHT22;16985;50.814;8.530;2023-02-21T06:12:41;7.40;99.90
30174;DHT22;16985;50.814;8.530;2023-02-21T06:15:07;7.40;99.90
30174;DHT22;16985;50.814;8.530;2023-02-21T06:20:02;7.50;99.90
30174;DHT22;16985;50.814;8.530;2023-02-21T06:22:28;7.50;99.90
30174;DHT22;16985;50.814;8.530;2023-02-21T06:24:54;7.50;99.90
30174;DHT22;16985;50.814;8.530;2023-02-21T06:27:20;7.40;99.90
30174;DHT22;16985;50.814;8.530;2023-02-21T06:29:46;7.50;99.90
30174;DHT22;16985;50.814;8.530;2023-02-21T06:32:12;7.40;99.90
30174;DHT22;16985;50.814;8.530;2023-02-21T06:34:37;7.40;99.90
30174;DHT22;16985;50.814;8.530;2023-02-21T06:39:29;7.50;99.90
30174;DHT22;16985;50.814;8.530;2023-02-21T06:41:55;7.60;99.90
30174;DHT22;16985;50.814;8.530;2023-02-21T06:44:21;7.50;99.90
30174;DHT22;16985;50.814;8.530;2023-02-21T06:46:47;7.50;99.90
30174;DHT22;16985;50.814;8.530;2023-02-21T06:49:19;7.50;99.90
30174;DHT22;16985;50.814;8.530;2023-02-21T06:51:46;7.50;99.90
30174;DHT22;16985;50.814;8.530;2023-02-21T06:54:12;7.50;99.90
30174;DHT22;16985;50.814;8.530;2023-02-21T06:56:41;7.50;99.90
30174;DHT22;16985;50.814;8.530;2023-02-21T06:59:09;7.50;99.90
30174;DHT22;16985;50.814;8.530;2023-02-21T07:04:01;7.70;99.90
30174;DHT22;16985;50.814;8.530;2023-02-21T07:08:53;7.70;99.90
30174;DHT22;16985;50.814;8.530;2023-02-21T07:11:19;7.70;99.90
30174;DHT22;16985;50.814;8.530;2023-02-21T07:13:52;7.70;99.90
30174;DHT22;16985;50.814;8.530;2023-02-21T07:16:19;7.70;99.90
30174;DHT22;16985;50.814;8.530;2023-02-21T07:18:46;7.60;99.90
30174;DHT22;16985;50.814;8.530;2023-02-21T07:21:13;7.70;99.90
30174;DHT22;16985;50.814;8.530;2023-02-21T07:23:39;7.70;99.90
30174;DHT22;16985;50.814;8.530;2023-02-21T07:26:05;7.70;99.90
30174;DHT22;16985;50.814;8.530;2023-02-21T07:28:31;7.70;99.90
30174;DHT22;16985;50.814;8.530;2023-02-21T07:30:56;7.70;99.90
30174;DHT22;16985;50.814;8.530;2023-02-21T07:33:22;7.80;99.90
30174;DHT22;16985;50.814;8.530;2023-02-21T07:35:48;7.80;99.90
30174;DHT22;16985;50.814;8.530;2023-02-21T07:38:25;7.80;99.90
30174;DHT22;16985;50.814;8.530;2023-02-21T07:40:56;7.90;99.90
30174;DHT22;16985;50.814;8.530;2023-02-21T07:43:24;7.90;99.90
30174;DHT22;16985;50.814;8.530;2023-02-21T07:45:51;7.90;99.90
30174;DHT22;16985;50.814;8.530;2023-02-21T07:48:17;8.00;99.90
30174;DHT22;16985;50.814;8.530;2023-02-21T07:50:43;8.00;99.90
30174;DHT22;16985;50.814;8.530;2023-02-21T07:53:10;8.00;99.90
30174;DHT22;16985;50.814;8.530;2023-02-21T07:55:37;8.00;99.90
30174;DHT22;16985;50.814;8.530;2023-02-21T07:58:03;8.10;99.90
30174;DHT22;16985;50.814;8.530;2023-02-21T08:02:56;8.70;99.90
30174;DHT22;16985;50.814;8.530;2023-02-21T08:05:21;8.40;99.90
30174;DHT22;16985;50.814;8.530;2023-02-21T08:07:47;8.30;99.90
30174;DHT22;16985;50.814;8.530;2023-02-21T08:10:19;8.20;99.90
30174;DHT22;16985;50.814;8.530;2023-02-21T08:15:13;8.50;99.90
30174;DHT22;16985;50.814;8.530;2023-02-21T08:17:39;8.50;99.90
30174;DHT22;16985;50.814;8.530;2023-02-21T08:20:05;8.40;99.90
30174;DHT22;16985;50.814;8.530;2023-02-21T08:22:32;8.40;99.90
30174;DHT22;16985;50.814;8.530;2023-02-21T08:27:24;8.50;99.90
30174;DHT22;16985;50.814;8.530;2023-02-21T08:34:45;8.90;99.90
30174;DHT22;16985;50.814;8.530;2023-02-21T08:37:12;8.90;99.90
30174;DHT22;16985;50.814;8.530;2023-02-21T08:39:48;8.90;99.90
30174;DHT22;16985;50.814;8.530;2023-02-21T08:57:02;9.10;99.90
30174;DHT22;16985;50.814;8.530;2023-02-21T08:59:27;9.30;99.90
30174;DHT22;16985;50.814;8.530;2023-02-21T09:06:52;9.50;99.90
30174;DHT22;16985;50.814;8.530;2023-02-21T09:14:15;9.50;99.90
30174;DHT22;16985;50.814;8.530;2023-02-21T09:19:08;9.50;99.90
30174;DHT22;16985;50.814;8.530;2023-02-21T09:21:35;9.60;99.90
30174;DHT22;16985;50.814;8.530;2023-02-21T09:24:09;9.60;99.90
30174;DHT22;16985;50.814;8.530;2023-02-21T09:26:35;9.60;99.90
30174;DHT22;16985;50.814;8.530;2023-02-21T09:29:01;9.60;99.90
30174;DHT22;16985;50.814;8.530;2023-02-21T09:38:49;10.10;99.90
30174;DHT22;16985;50.814;8.530;2023-02-21T09:41:16;10.10;99.90
30174;DHT22;16985;50.814;8.530;2023-02-21T09:43:46;10.10;99.90
30174;DHT22;16985;50.814;8.530;2023-02-21T09:46:18;10.10;99.90
30174;DHT22;16985;50.814;8.530;2023-02-21T09:48:56;10.10;99.90
30174;DHT22;16985;50.814;8.530;2023-02-21T09:51:23;10.10;99.90
30174;DHT22;16985;50.814;8.530;2023-02-21T09:53:54;10.20;99.90
30174;DHT22;16985;50.814;8.530;2023-02-21T09:56:28;10.30;99.90
30174;DHT22;16985;50.814;8.530;2023-02-21T09:59:12;10.30;99.90
30174;DHT22;16985;50.814;8.530;2023-02-21T10:05:00;10.40;99.90
30174;DHT22;16985;50.814;8.530;2023-02-21T10:08:07;10.40;99.90
30174;DHT22;16985;50.814;8.530;2023-02-21T10:16:12;10.60;99.90
30174;DHT22;16985;50.814;8.530;2023-02-21T10:21:28;10.70;99.90
30174;DHT22;16985;50.814;8.530;2023-02-21T10:23:58;10.80;99.90
30174;DHT22;16985;50.814;8.530;2023-02-21T10:31:35;11.60;99.90
30174;DHT22;16985;50.814;8.530;2023-02-21T10:34:04;11.70;99.90
30174;DHT22;16985;50.814;8.530;2023-02-21T10:36:33;11.90;99.90
30174;DHT22;16985;50.814;8.530;2023-02-21T10:52:17;12.80;99.90
30174;DHT22;16985;50.814;8.530;2023-02-21T10:55:05;12.90;99.90
30174;DHT22;16985;50.814;8.530;2023-02-21T10:57:41;13.00;99.90
30174;DHT22;16985;50.814;8.530;2023-02-21T11:00:08;13.20;99.90
30174;DHT22;16985;50.814;8.530;2023-02-21T11:02:43;13.30;99.90
30174;DHT22;16985;50.814;8.530;2023-02-21T11:05:19;13.50;99.90
30174;DHT22;16985;50.814;8.530;2023-02-21T11:08:02;13.60;99.90
30174;DHT22;16985;50.814;8.530;2023-02-21T11:10:42;13.80;99.90
30174;DHT22;16985;50.814;8.530;2023-02-21T11:13:15;13.90;99.90
30174;DHT22;16985;50.814;8.530;2023-02-21T11:15:43;13.90;99.90
30174;DHT22;16985;50.814;8.530;2023-02-21T11:18:21;13.90;99.90
30174;DHT22;16985;50.814;8.530;2023-02-21T11:20:51;13.90;99.90
30174;DHT22;16985;50.814;8.530;2023-02-21T11:23:17;13.80;99.90
30174;DHT22;16985;50.814;8.530;2023-02-21T11:25:46;13.70;99.90
30174;DHT22;16985;50.814;8.530;2023-02-21T11:30:42;13.60;99.90
30174;DHT22;16985;50.814;8.530;2023-02-21T11:33:23;13.50;99.90
30174;DHT22;16985;50.814;8.530;2023-02-21T11:35:51;13.50;99.90
30174;DHT22;16985;50.814;8.530;2023-02-21T11:38:42;13.40;99.90
30174;DHT22;16985;50.814;8.530;2023-02-21T11:41:22;13.40;99.90
30174;DHT22;16985;50.814;8.530;2023-02-21T11:43:53;13.30;99.90
30174;DHT22;16985;50.814;8.530;2023-02-21T11:46:41;13.30;99.90
30174;DHT22;16985;50.814;8.530;2023-02-21T11:51:57;13.20;99.90
30174;DHT22;16985;50.814;8.530;2023-02-21T11:54:27;13.20;99.90
30174;DHT22;16985;50.814;8.530;2023-02-21T11:57:06;13.10;99.90
30174;DHT22;16985;50.814;8.530;2023-02-21T11:59:48;13.10;99.90
30174;DHT22;16985;50.814;8.530;2023-02-21T12:02:57;13.00;99.90
30174;DHT22;16985;50.814;8.530;2023-02-21T12:08:17;13.00;99.90
30174;DHT22;16985;50.814;8.530;2023-02-21T12:18:11;12.90;99.90
30174;DHT22;16985;50.814;8.530;2023-02-21T12:32:49;12.90;99.90
30174;DHT22;16985;50.814;8.530;2023-02-21T12:45:18;12.70;99.90
30174;DHT22;16985;50.814;8.530;2023-02-21T12:50:47;12.70;99.90
30174;DHT22;16985;50.814;8.530;2023-02-21T12:53:34;12.70;99.90
30174;DHT22;16985;50.814;8.530;2023-02-21T12:56:16;12.70;99.90
30174;DHT22;16985;50.814;8.530;2023-02-21T13:01:52;12.60;99.90
30174;DHT22;16985;50.814;8.530;2023-02-21T13:04:45;12.70;99.90
30174;DHT22;16985;50.814;8.530;2023-02-21T13:07:22;12.60;99.90
30174;DHT22;16985;50.814;8.530;2023-02-21T13:13:00;12.60;99.90
30174;DHT22;16985;50.814;8.530;2023-02-21T13:15:30;12.60;99.90
30174;DHT22;16985;50.814;8.530;2023-02-21T13:18:06;12.50;99.90
30174;DHT22;16985;50.814;8.530;2023-02-21T13:20:44;12.50;99.90
30174;DHT22;16985;50.814;8.530;2023-02-21T13:26:27;12.50;99.90
30174;DHT22;16985;50.814;8.530;2023-02-21T13:29:21;12.50;99.90
30174;DHT22;16985;50.814;8.530;2023-02-21T13:34:47;12.50;99.90
30174;DHT22;16985;50.814;8.530;2023-02-21T13:37:20;12.60;99.90
30174;DHT22;16985;50.814;8.530;2023-02-21T13:39:54;12.50;99.90
30174;DHT22;16985;50.814;8.530;2023-02-21T13:42:27;12.60;99.90
30174;DHT22;16985;50.814;8.530;2023-02-21T13:53:20;12.60;99.90
30174;DHT22;16985;50.814;8.530;2023-02-21T13:59:29;12.60;99.90
30174;DHT22;16985;50.814;8.530;2023-02-21T14:01:49;12.60;99.90
30174;DHT22;16985;50.814;8.530;2023-02-21T14:07:41;12.60;99.90
30174;DHT22;16985;50.814;8.530;2023-02-21T14:10:47;12.60;99.90
30174;DHT22;16985;50.814;8.530;2023-02-21T14:18:44;12.60;99.90
30174;DHT22;16985;50.814;8.530;2023-02-21T14:23:50;12.70;99.90
30174;DHT22;16985;50.814;8.530;2023-02-21T14:26:42;12.80;99.90
30174;DHT22;16985;50.814;8.530;2023-02-21T14:40:43;13.00;99.90
30174;DHT22;16985;50.814;8.530;2023-02-21T14:43:09;13.00;99.90
30174;DHT22;16985;50.814;8.530;2023-02-21T14:46:17;13.00;99.90
30174;DHT22;16985;50.814;8.530;2023-02-21T14:55:28;13.30;99.90
30174;DHT22;16985;50.814;8.530;2023-02-21T14:58:30;13.40;99.90
30174;DHT22;16985;50.814;8.530;2023-02-21T15:09:36;13.40;99.90
30174;DHT22;16985;50.814;8.530;2023-02-21T15:12:08;13.40;99.90
30174;DHT22;16985;50.814;8.530;2023-02-21T15:14:46;13.40;99.90
30174;DHT22;16985;50.814;8.530;2023-02-21T15:17:22;13.30;99.90
30174;DHT22;16985;50.814;8.530;2023-02-21T15:20:12;13.30;99.90
30174;DHT22;16985;50.814;8.530;2023-02-21T15:22:40;13.30;99.90
30174;DHT22;16985;50.814;8.530;2023-02-21T15:27:37;13.30;99.90
30174;DHT22;16985;50.814;8.530;2023-02-21T15:30:17;13.30;99.90
30174;DHT22;16985;50.814;8.530;2023-02-21T15:33:16;13.30;99.90
30174;DHT22;16985;50.814;8.530;2023-02-21T15:36:05;13.40;99.90
30174;DHT22;16985;50.814;8.530;2023-02-21T15:41:02;13.40;99.90
30174;DHT22;16985;50.814;8.530;2023-02-21T15:43:47;13.40;99.90
30174;DHT22;16985;50.814;8.530;2023-02-21T15:46:20;13.40;99.90
30174;DHT22;16985;50.814;8.530;2023-02-21T15:48:48;13.40;99.90
30174;DHT22;16985;50.814;8.530;2023-02-21T15:51:15;13.30;99.90
30174;DHT22;16985;50.814;8.530;2023-02-21T15:53:41;12.90;99.90
30174;DHT22;16985;50.814;8.530;2023-02-21T15:56:20;13.50;99.90
30174;DHT22;16985;50.814;8.530;2023-02-21T15:59:19;13.20;99.90
30174;DHT22;16985;50.814;8.530;2023-02-21T16:02:25;13.20;99.90
30174;DHT22;16985;50.814;8.530;2023-02-21T16:04:52;13.10;99.90
30174;DHT22;16985;50.814;8.530;2023-02-21T16:09:49;12.90;99.90
30174;DHT22;16985;50.814;8.530;2023-02-21T16:12:34;12.80;99.90
30174;DHT22;16985;50.814;8.530;2023-02-21T16:17:43;12.70;99.90
30174;DHT22;16985;50.814;8.530;2023-02-21T16:20:22;12.60;99.90
30174;DHT22;16985;50.814;8.530;2023-02-21T16:26:18;12.40;99.90
30174;DHT22;16985;50.814;8.530;2023-02-21T16:28:55;12.30;99.90
30174;DHT22;16985;50.814;8.530;2023-02-21T16:31:27;12.20;99.90
30174;DHT22;16985;50.814;8.530;2023-02-21T16:33:54;12.20;99.90
30174;DHT22;16985;50.814;8.530;2023-02-21T16:36:29;12.00;99.90
30174;DHT22;16985;50.814;8.530;2023-02-21T16:38:56;12.00;99.90
30174;DHT22;16985;50.814;8.530;2023-02-21T16:41:23;11.90;99.90
30174;DHT22;16985;50.814;8.530;2023-02-21T16:43:50;11.90;99.90
30174;DHT22;16985;50.814;8.530;2023-02-21T16:46:23;11.70;99.90
30174;DHT22;16985;50.814;8.530;2023-02-21T16:48:52;11.70;99.90
30174;DHT22;16985;50.814;8.530;2023-02-21T16:51:18;11.60;99.90
30174;DHT22;16985;50.814;8.530;2023-02-21T16:53:45;11.50;99.90
30174;DHT22;16985;50.814;8.530;2023-02-21T16:56:12;11.50;99.90
30174;DHT22;16985;50.814;8.530;2023-02-21T16:58:41;11.40;99.90
30174;DHT22;16985;50.814;8.530;2023-02-21T17:01:29;11.30;99.90
30174;DHT22;16985;50.814;8.530;2023-02-21T17:03:57;11.30;99.90
30174;DHT22;16985;50.814;8.530;2023-02-21T17:06:24;11.20;99.90
30174;DHT22;16985;50.814;8.530;2023-02-21T17:08:51;11.10;99.90
30174;DHT22;16985;50.814;8.530;2023-02-21T17:11:17;11.00;99.90
30174;DHT22;16985;50.814;8.530;2023-02-21T17:13:43;11.00;99.90
30174;DHT22;16985;50.814;8.530;2023-02-21T17:16:09;10.90;99.90
30174;DHT22;16985;50.814;8.530;2023-02-21T17:18:35;10.80;99.90
30174;DHT22;16985;50.814;8.530;2023-02-21T17:21:02;10.80;99.90
30174;DHT22;16985;50.814;8.530;2023-02-21T17:23:28;10.70;99.90
30174;DHT22;16985;50.814;8.530;2023-02-21T17:25:54;10.60;99.90
30174;DHT22;16985;50.814;8.530;2023-02-21T17:28:20;10.60;99.90
30174;DHT22;16985;50.814;8.530;2023-02-21T17:30:46;10.50;99.90
30174;DHT22;16985;50.814;8.530;2023-02-21T17:33:12;10.50;99.90
30174;DHT22;16985;50.814;8.530;2023-02-21T17:35:39;10.40;99.90
30174;DHT22;16985;50.814;8.530;2023-02-21T17:38:05;10.30;99.90
30174;DHT22;16985;50.814;8.530;2023-02-21T17:40:31;10.30;99.90
30174;DHT22;16985;50.814;8.530;2023-02-21T17:42:57;10.20;99.90
30174;DHT22;16985;50.814;8.530;2023-02-21T17:45:23;10.10;99.90
30174;DHT22;16985;50.814;8.530;2023-02-21T17:47:51;10.20;99.90
30174;DHT22;16985;50.814;8.530;2023-02-21T17:50:19;10.00;99.90
30174;DHT22;16985;50.814;8.530;2023-02-21T17:52:46;9.90;99.90
30174;DHT22;16985;50.814;8.530;2023-02-21T17:55:19;9.90;99.90
30174;DHT22;16985;50.814;8.530;2023-02-21T17:57:46;9.80;99.90
30174;DHT22;16985;50.814;8.530;2023-02-21T18:00:21;9.80;99.90
30174;DHT22;16985;50.814;8.530;2023-02-21T18:02:51;9.70;99.90
30174;DHT22;16985;50.814;8.530;2023-02-21T18:05:18;9.70;99.90
30174;DHT22;16985;50.814;8.530;2023-02-21T18:07:48;9.70;99.90
30174;DHT22;16985;50.814;8.530;2023-02-21T18:10:16;9.60;99.90
30174;DHT22;16985;50.814;8.530;2023-02-21T18:12:43;9.60;99.90
30174;DHT22;16985;50.814;8.530;2023-02-21T18:15:09;9.50;99.90
30174;DHT22;16985;50.814;8.530;2023-02-21T18:17:36;9.50;99.90
30174;DHT22;16985;50.814;8.530;2023-02-21T18:20:02;9.50;99.90
30174;DHT22;16985;50.814;8.530;2023-02-21T18:22:29;9.30;99.90
30174;DHT22;16985;50.814;8.530;2023-02-21T18:24:54;9.30;99.90
30174;DHT22;16985;50.814;8.530;2023-02-21T18:27:20;9.20;99.90
30174;DHT22;16985;50.814;8.530;2023-02-21T18:29:46;9.20;99.90
30174;DHT22;16985;50.814;8.530;2023-02-21T18:32:12;9.20;99.90
30174;DHT22;16985;50.814;8.530;2023-02-21T18:34:37;9.10;99.90
30174;DHT22;16985;50.814;8.530;2023-02-21T18:37:03;9.10;99.90
30174;DHT22;16985;50.814;8.530;2023-02-21T18:41:58;9.00;99.90
30174;DHT22;16985;50.814;8.530;2023-02-21T18:44:24;8.90;99.90
30174;DHT22;16985;50.814;8.530;2023-02-21T18:46:51;9.00;99.90
30174;DHT22;16985;50.814;8.530;2023-02-21T18:49:20;8.80;99.90
30174;DHT22;16985;50.814;8.530;2023-02-21T18:51:46;8.80;99.90
30174;DHT22;16985;50.814;8.530;2023-02-21T18:54:12;7.90;99.90
30174;DHT22;16985;50.814;8.530;2023-02-21T18:56:44;8.70;99.90
30174;DHT22;16985;50.814;8.530;2023-02-21T18:59:19;8.70;99.90
30174;DHT22;16985;50.814;8.530;2023-02-21T19:01:50;8.60;99.90
30174;DHT22;16985;50.814;8.530;2023-02-21T19:04:17;8.60;99.90
30174;DHT22;16985;50.814;8.530;2023-02-21T19:06:44;8.50;99.90
30174;DHT22;16985;50.814;8.530;2023-02-21T19:09:10;8.50;99.90
30174;DHT22;16985;50.814;8.530;2023-02-21T19:11:36;8.40;99.90
30174;DHT22;16985;50.814;8.530;2023-02-21T19:14:03;8.50;99.90
30174;DHT22;16985;50.814;8.530;2023-02-21T19:16:31;8.30;99.90
30174;DHT22;16985;50.814;8.530;2023-02-21T19:18:58;8.30;99.90
30174;DHT22;16985;50.814;8.530;2023-02-21T19:21:25;8.30;99.90
30174;DHT22;16985;50.814;8.530;2023-02-21T19:23:54;8.20;99.90
30174;DHT22;16985;50.814;8.530;2023-02-21T19:26:20;8.20;99.90
30174;DHT22;16985;50.814;8.530;2023-02-21T19:28:46;8.20;99.90
30174;DHT22;16985;50.814;8.530;2023-02-21T19:31:14;8.10;99.90
30174;DHT22;16985;50.814;8.530;2023-02-21T19:33:42;8.10;99.90
30174;DHT22;16985;50.814;8.530;2023-02-21T19:36:09;8.00;99.90
30174;DHT22;16985;50.814;8.530;2023-02-21T19:38:35;8.00;99.90
30174;DHT22;16985;50.814;8.530;2023-02-21T19:41:04;8.00;99.90
30174;DHT22;16985;50.814;8.530;2023-02-21T19:43:31;7.90;99.90
30174;DHT22;16985;50.814;8.530;2023-02-21T19:45:58;7.80;99.90
30174;DHT22;16985;50.814;8.530;2023-02-21T19:48:24;7.80;99.90
30174;DHT22;16985;50.814;8.530;2023-02-21T19:50:50;7.80;99.90
30174;DHT22;16985;50.814;8.530;2023-02-21T19:53:16;7.70;99.90
30174;DHT22;16985;50.814;8.530;2023-02-21T19:55:42;7.70;99.90
30174;DHT22;16985;50.814;8.530;2023-02-21T19:58:12;7.70;99.90
30174;DHT22;16985;50.814;8.530;2023-02-21T20:00:38;7.60;99.90
30174;DHT22;16985;50.814;8.530;2023-02-21T20:03:09;7.60;99.90
30174;DHT22;16985;50.814;8.530;2023-02-21T20:05:35;7.60;99.90
30174;DHT22;16985;50.814;8.530;2023-02-21T20:08:02;7.60;99.90
30174;DHT22;16985;50.814;8.530;2023-02-21T20:10:28;7.50;99.90
30174;DHT22;16985;50.814;8.530;2023-02-21T20:12:55;7.40;99.90
30174;DHT22;16985;50.814;8.530;2023-02-21T20:15:22;7.40;99.90
30174;DHT22;16985;50.814;8.530;2023-02-21T20:17:48;7.30;99.90
30174;DHT22;16985;50.814;8.530;2023-02-21T20:20:16;7.30;99.90
30174;DHT22;16985;50.814;8.530;2023-02-21T20:22:42;7.30;99.90
30174;DHT22;16985;50.814;8.530;2023-02-21T20:25:08;7.20;99.90
30174;DHT22;16985;50.814;8.530;2023-02-21T20:27:34;7.20;99.90
30174;DHT22;16985;50.814;8.530;2023-02-21T20:30:04;7.10;99.90
30174;DHT22;16985;50.814;8.530;2023-02-21T20:32:30;7.10;99.90
30174;DHT22;16985;50.814;8.530;2023-02-21T20:34:56;7.00;99.90
30174;DHT22;16985;50.814;8.530;2023-02-21T20:37:22;7.00;99.90
30174;DHT22;16985;50.814;8.530;2023-02-21T20:39:49;7.00;99.90
30174;DHT22;16985;50.814;8.530;2023-02-21T20:42:15;7.00;99.90
30174;DHT22;16985;50.814;8.530;2023-02-21T20:44:42;6.90;99.90
30174;DHT22;16985;50.814;8.530;2023-02-21T20:47:09;6.90;99.90
30174;DHT22;16985;50.814;8.530;2023-02-21T20:49:35;7.30;99.90
30174;DHT22;16985;50.814;8.530;2023-02-21T20:52:02;6.80;99.90
30174;DHT22;16985;50.814;8.530;2023-02-21T20:54:28;6.70;99.90
30174;DHT22;16985;50.814;8.530;2023-02-21T20:56:55;6.70;99.90
30174;DHT22;16985;50.814;8.530;2023-02-21T20:59:29;6.60;99.90
30174;DHT22;16985;50.814;8.530;2023-02-21T21:01:59;6.50;99.90
30174;DHT22;16985;50.814;8.530;2023-02-21T21:04:51;6.50;99.90
30174;DHT22;16985;50.814;8.530;2023-02-21T21:07:20;6.50;99.90
30174;DHT22;16985;50.814;8.530;2023-02-21T21:09:48;6.40;99.90
30174;DHT22;16985;50.814;8.530;2023-02-21T21:12:17;6.40;99.90
30174;DHT22;16985;50.814;8.530;2023-02-21T21:14:46;6.30;99.90
30174;DHT22;16985;50.814;8.530;2023-02-21T21:17:16;6.20;99.90
30174;DHT22;16985;50.814;8.530;2023-02-21T21:19:44;6.20;99.90
30174;DHT22;16985;50.814;8.530;2023-02-21T21:22:14;6.10;99.90
30174;DHT22;16985;50.814;8.530;2023-02-21T21:24:42;6.10;99.90
30174;DHT22;16985;50.814;8.530;2023-02-21T21:27:08;6.10;99.90
30174;DHT22;16985;50.814;8.530;2023-02-21T21:29:36;6.00;99.90
30174;DHT22;16985;50.814;8.530;2023-02-21T21:32:03;6.00;99.90